Birmingham, Illinois
Current Conditions -  °F | °C
As of 10:15 AM on Saturday 25 Oct 2014 (Local Time) from KMQB Reporting Station
Clear Clear  
Wind Chill: 15°   Ceiling: Unl
Heat Index: 15°   Visibility: 10mi
Dew Point: 15°   Wind: 6mph
Humidity: 100%   Direction: 310°NW
Pressure: 30.06"   Gusts: NA
Location:  40.2814°N, 90.8526°W
Report Text: KMQB 251515Z AUTO 31005KT 10SM CLR 15/15 A3006 RMK AO2 T01460146
Loading
Personal Weather Stations






























Interactive Weather Map
Tropical Storm Tracking
New forecast layout! Learn more

10-Day Weather Forecast

Advertisements
Track Severe Weather on mobile